Terminal Aerodrome Forecast
Issued by NWS Upton, NY

Current Version | Previous Version | Text Only | Print | Product List | Glossary On
Versions: 1 2 3 4 5 6 7 8 9 10 11 12 13 14 15 16 17 18 19 20 21 22 23 24 25 26 27 28 29 30 31 32 33 34 35 36 37 38 39 40
689 FTUS41 KOKX 301120 TAFISP TAF KISP 301120Z 3012/0112 04008KT P6SM SCT060 FM301400 07011KT P6SM BKN060 FM301600 11011KT P6SM BKN040 FM010000 10009KT P6SM SCT015 BKN030 FM010200 10010KT P6SM FEW008 BKN015 FM010400 11009KT P6SM FEW003 OVC008 FM010600 11007KT 4SM BR OVC004 FM010900 VRB04KT 1/2SM -DZ FG OVC003=

USA.gov is the U.S. government's official web portal to all federal, state and local government web resources and services.